createdAt,value
2022-11-15T00:01:20.010Z,27.83
2022-11-15T00:03:48.161Z,39.67
2022-11-15T00:06:15.977Z,36.30
2022-11-15T00:08:43.903Z,31.53
2022-11-15T00:11:12.972Z,44.60
2022-11-15T00:13:41.158Z,26.50
2022-11-15T00:16:09.215Z,23.47
2022-11-15T00:18:36.905Z,35.70
2022-11-15T00:21:07.416Z,23.40
2022-11-15T00:23:35.670Z,17.07
2022-11-15T00:26:03.747Z,29.37
2022-11-15T00:28:31.668Z,60.40
2022-11-15T00:31:07.088Z,26.53
2022-11-15T00:33:35.341Z,27.07
2022-11-15T00:36:07.864Z,24.73
2022-11-15T00:38:36.200Z,19.33
2022-11-15T00:41:09.178Z,41.90
2022-11-15T00:43:37.458Z,24.43
2022-11-15T00:46:05.319Z,22.67
2022-11-15T00:48:34.234Z,13.07
2022-11-15T00:51:01.998Z,28.97
2022-11-15T00:53:30.219Z,16.63
2022-11-15T00:55:58.394Z,32.57
2022-11-15T00:58:26.240Z,58.50
2022-11-15T01:00:54.080Z,28.03
2022-11-15T01:03:22.038Z,39.70
2022-11-15T01:05:49.826Z,46.97
2022-11-15T01:08:18.052Z,42.57
2022-11-15T01:10:45.894Z,62.57
2022-11-15T01:13:13.670Z,34.23
2022-11-15T01:15:42.924Z,43.90
2022-11-15T01:18:10.980Z,29.23
2022-11-15T01:20:45.081Z,34.90
2022-11-15T01:23:12.872Z,82.43
2022-11-15T01:25:40.772Z,52.63
2022-11-15T01:28:08.602Z,41.30
2022-11-15T01:30:37.787Z,40.60
2022-11-15T01:33:05.536Z,31.83
2022-11-15T01:35:33.279Z,33.60
2022-11-15T01:38:01.128Z,52.40
2022-11-15T01:40:28.850Z,55.87
2022-11-15T01:42:56.670Z,49.67
2022-11-15T01:45:24.438Z,33.93
2022-11-15T01:47:54.455Z,24.77
2022-11-15T01:50:24.986Z,43.87
2022-11-15T01:52:52.971Z,31.47
2022-11-15T01:55:27.016Z,47.80
2022-11-15T01:57:57.285Z,52.30
2022-11-15T02:00:25.078Z,21.77
2022-11-15T02:02:52.863Z,23.93
2022-11-15T02:05:20.811Z,26.40
2022-11-15T02:07:48.526Z,41.73
2022-11-15T02:10:20.549Z,31.20
2022-11-15T02:12:48.655Z,22.20
2022-11-15T02:15:16.414Z,15.33
2022-11-15T02:18:10.747Z,32.63
2022-11-15T02:20:51.310Z,21.33
2022-11-15T02:23:34.520Z,30.50
2022-11-15T02:26:27.715Z,21.20
2022-11-15T02:29:05.392Z,18.40
2022-11-15T02:31:35.915Z,20.70
2022-11-15T02:34:16.040Z,39.57
2022-11-15T02:36:54.849Z,75.33
2022-11-15T02:39:39.298Z,40.17
2022-11-15T02:42:31.214Z,35.97
2022-11-15T02:44:59.327Z,22.50
2022-11-15T02:47:27.068Z,28.27
2022-11-15T02:49:56.025Z,18.53
2022-11-15T02:52:25.067Z,21.07
2022-11-15T02:55:10.965Z,50.77
2022-11-15T02:57:48.213Z,20.70
2022-11-15T03:00:20.669Z,43.20
2022-11-15T03:03:18.454Z,32.77
2022-11-15T03:05:52.567Z,24.07
2022-11-15T03:08:28.844Z,24.73
2022-11-15T03:11:15.767Z,20.60
2022-11-15T03:14:01.132Z,29.07
2022-11-15T03:16:39.172Z,20.20
2022-11-15T03:19:16.039Z,20.27
2022-11-15T03:21:43.865Z,18.30
2022-11-15T03:24:11.629Z,28.73
2022-11-15T03:26:39.400Z,22.60
2022-11-15T03:29:10.570Z,32.43
2022-11-15T03:31:51.765Z,30.03
2022-11-15T03:34:30.197Z,21.37
2022-11-15T03:36:57.964Z,26.40
2022-11-15T03:39:25.934Z,21.30
2022-11-15T03:42:18.852Z,15.03
2022-11-15T03:45:04.542Z,15.13
2022-11-15T03:47:38.731Z,10.70
2022-11-15T03:50:18.127Z,11.90
2022-11-15T03:52:47.573Z,15.03
2022-11-15T03:55:17.503Z,7.77
2022-11-15T03:57:45.326Z,10.67
2022-11-15T04:00:13.462Z,6.27
2022-11-15T04:02:41.268Z,12.10
2022-11-15T04:05:13.883Z,11.20
2022-11-15T04:07:41.720Z,8.73
2022-11-15T04:10:11.322Z,8.83
2022-11-15T04:12:42.694Z,13.53
2022-11-15T04:15:12.543Z,18.40
2022-11-15T04:17:50.688Z,18.87
2022-11-15T04:20:42.188Z,20.40
2022-11-15T04:23:32.445Z,17.03
2022-11-15T04:26:03.361Z,13.03
2022-11-15T04:28:31.069Z,15.73
2022-11-15T04:30:58.983Z,10.63
2022-11-15T04:33:26.754Z,7.97
2022-11-15T04:36:13.292Z,17.03
2022-11-15T04:38:41.083Z,7.80
2022-11-15T04:41:08.985Z,9.47
2022-11-15T04:43:36.785Z,14.00
2022-11-15T04:46:04.664Z,8.43
2022-11-15T04:48:32.514Z,15.77
2022-11-15T04:51:00.349Z,10.97
2022-11-15T04:53:28.508Z,7.97
2022-11-15T04:55:56.405Z,11.10
2022-11-15T04:58:24.179Z,14.03
2022-11-15T05:00:52.075Z,17.67
2022-11-15T05:03:38.769Z,15.17
2022-11-15T05:06:07.172Z,11.80
2022-11-15T05:08:34.994Z,48.27
2022-11-15T05:11:02.882Z,21.10
2022-11-15T05:13:31.162Z,28.67
2022-11-15T05:15:59.170Z,14.33
2022-11-15T05:18:26.972Z,18.17
2022-11-15T05:20:54.787Z,18.37
2022-11-15T05:23:22.604Z,11.27
2022-11-15T05:25:50.455Z,29.27
2022-11-15T05:28:18.266Z,28.93
2022-11-15T05:30:46.130Z,54.20
2022-11-15T05:33:14.002Z,21.43
2022-11-15T05:35:43.695Z,8.77
2022-11-15T05:38:11.520Z,18.23
2022-11-15T05:40:39.374Z,27.90
2022-11-15T05:43:07.202Z,30.63
2022-11-15T05:45:35.169Z,30.53
2022-11-15T05:48:03.226Z,36.13
2022-11-15T05:50:31.990Z,54.57
2022-11-15T05:53:04.701Z,31.83
2022-11-15T05:55:33.107Z,37.77
2022-11-15T05:58:00.844Z,32.80
2022-11-15T06:00:28.628Z,25.53
2022-11-15T06:02:56.442Z,92.20
2022-11-15T06:05:24.362Z,46.13
2022-11-15T06:07:52.134Z,45.87
2022-11-15T06:10:19.894Z,44.93
2022-11-15T06:12:47.795Z,15.27
2022-11-15T06:15:15.558Z,20.43
2022-11-15T06:17:43.389Z,25.33
2022-11-15T06:20:12.172Z,44.20
2022-11-15T06:22:40.025Z,81.10
2022-11-15T06:25:08.207Z,31.63
2022-11-15T06:27:36.384Z,34.27
2022-11-15T06:30:04.252Z,39.63
2022-11-15T06:32:32.816Z,32.27
2022-11-15T06:35:00.751Z,46.07
2022-11-15T06:37:28.497Z,47.50
2022-11-15T06:39:56.334Z,34.40
2022-11-15T06:42:24.097Z,54.97
2022-11-15T06:44:51.993Z,41.57
2022-11-15T06:47:19.795Z,39.53
2022-11-15T06:49:47.519Z,31.83
2022-11-15T06:52:15.490Z,52.77
2022-11-15T06:54:43.279Z,15.87
2022-11-15T06:57:11.070Z,36.13
2022-11-15T06:59:40.685Z,15.13
2022-11-15T07:02:12.724Z,31.33
2022-11-15T07:04:40.508Z,77.17
2022-11-15T07:07:08.327Z,83.40
2022-11-15T07:09:36.099Z,36.63
2022-11-15T07:12:07.644Z,30.27
2022-11-15T07:14:40.507Z,18.20
2022-11-15T07:17:12.879Z,18.40
2022-11-15T07:19:43.446Z,31.07
2022-11-15T07:22:15.948Z,86.90
2022-11-15T07:24:43.896Z,37.47
2022-11-15T07:27:11.952Z,22.07
2022-11-15T07:29:40.038Z,12.87
2022-11-15T07:32:08.854Z,11.47
2022-11-15T07:34:36.767Z,23.03
2022-11-15T07:37:04.722Z,10.67
2022-11-15T07:39:32.563Z,16.43
2022-11-15T07:42:19.663Z,41.77
2022-11-15T07:44:47.519Z,14.83
2022-11-15T07:47:15.420Z,11.33
2022-11-15T07:49:43.414Z,11.57
2022-11-15T07:52:11.245Z,17.77
2022-11-15T07:54:45.038Z,12.37
2022-11-15T07:57:12.927Z,9.00
2022-11-15T07:59:47.058Z,16.77
2022-11-15T08:02:15.204Z,11.87
2022-11-15T08:04:48.166Z,15.43
2022-11-15T08:07:16.113Z,11.83
2022-11-15T08:09:44.088Z,13.80
2022-11-15T08:12:12.094Z,10.80
2022-11-15T08:14:40.638Z,9.23
2022-11-15T08:17:08.484Z,10.30
2022-11-15T08:19:36.548Z,10.57
2022-11-15T08:22:04.576Z,9.63
2022-11-15T08:24:32.397Z,11.63
2022-11-15T08:27:00.503Z,9.70
2022-11-15T08:29:28.653Z,9.30
2022-11-15T08:32:01.052Z,10.17
2022-11-15T08:34:28.979Z,11.97
2022-11-15T08:36:57.023Z,10.03
2022-11-15T08:39:24.753Z,9.47
2022-11-15T08:41:52.498Z,9.83
2022-11-15T08:44:20.266Z,11.40
2022-11-15T08:46:48.484Z,10.47
2022-11-15T08:49:16.358Z,8.70
2022-11-15T08:51:44.425Z,14.10
2022-11-15T08:54:12.225Z,11.00
2022-11-15T08:56:39.965Z,10.30
2022-11-15T08:59:07.813Z,9.50
2022-11-15T09:01:35.572Z,10.63
2022-11-15T09:04:03.333Z,11.77
2022-11-15T09:06:31.101Z,10.20
2022-11-15T09:08:59.322Z,11.13
2022-11-15T09:11:28.584Z,11.10
2022-11-15T09:13:56.556Z,11.83
2022-11-15T09:16:24.767Z,11.00
2022-11-15T09:18:52.665Z,10.80
2022-11-15T09:21:20.526Z,12.17
2022-11-15T09:23:48.375Z,9.13
2022-11-15T09:26:16.284Z,11.63
2022-11-15T09:28:44.367Z,10.60
2022-11-15T09:31:12.278Z,10.80
2022-11-15T09:33:44.904Z,10.50
2022-11-15T09:36:12.987Z,11.93
2022-11-15T09:38:40.818Z,10.87
2022-11-15T09:41:14.286Z,11.33
2022-11-15T09:44:17.933Z,12.30
2022-11-15T09:47:23.825Z,11.17
2022-11-15T09:49:59.641Z,10.73
2022-11-15T09:52:27.478Z,10.50
2022-11-15T09:54:56.256Z,12.73
2022-11-15T09:57:43.741Z,11.77
2022-11-15T10:03:19.000Z,10.37
2022-11-15T10:05:51.785Z,10.10
2022-11-15T10:08:47.474Z,10.30
2022-11-15T10:11:40.316Z,8.30
2022-11-15T10:14:18.565Z,11.03
2022-11-15T10:17:04.127Z,8.97
2022-11-15T10:20:05.641Z,8.07
2022-11-15T10:22:50.499Z,8.83
2022-11-15T10:25:24.372Z,9.30
2022-11-15T10:28:24.929Z,8.60
2022-11-15T10:30:54.736Z,9.10
2022-11-15T10:33:30.393Z,9.27
2022-11-15T10:36:27.402Z,7.77
2022-11-15T10:38:56.756Z,8.97
2022-11-15T10:41:32.419Z,8.17
2022-11-15T10:44:13.414Z,8.17
2022-11-15T10:46:47.761Z,7.03
2022-11-15T10:49:30.635Z,6.93
2022-11-15T10:52:13.599Z,6.17
2022-11-15T10:54:45.916Z,5.47
2022-11-15T10:57:36.133Z,5.47
2022-11-15T11:00:09.093Z,5.53
2022-11-15T11:02:41.872Z,6.63
2022-11-15T11:05:39.713Z,6.70
2022-11-15T11:08:18.053Z,8.43
2022-11-15T11:11:03.034Z,7.60
2022-11-15T11:13:33.818Z,7.40
2022-11-15T11:16:16.884Z,7.40
2022-11-15T11:19:15.583Z,6.97
2022-11-15T11:22:05.416Z,6.60
2022-11-15T11:24:46.236Z,8.40
2022-11-15T11:27:30.264Z,7.37
2022-11-15T11:30:19.841Z,8.33
2022-11-15T11:32:55.739Z,7.93
2022-11-15T11:35:49.417Z,7.27
2022-11-15T11:38:29.464Z,8.00
2022-11-15T11:41:17.510Z,8.07
2022-11-15T11:44:03.995Z,9.70
2022-11-15T11:46:48.820Z,7.53
2022-11-15T11:49:33.168Z,8.93
2022-11-15T11:52:20.356Z,8.97
2022-11-15T11:55:03.658Z,8.47
2022-11-15T11:57:40.624Z,8.80
2022-11-15T12:00:22.745Z,9.00
2022-11-15T12:03:14.913Z,9.83
2022-11-15T12:05:47.402Z,8.40
2022-11-15T12:08:35.832Z,10.10
2022-11-15T12:11:16.175Z,8.90
2022-11-15T12:13:44.791Z,9.07
2022-11-15T12:16:22.531Z,7.27
2022-11-15T12:18:52.503Z,8.80
2022-11-15T12:21:50.870Z,9.33
2022-11-15T12:24:29.402Z,9.27
2022-11-15T12:27:05.993Z,9.20
2022-11-15T12:29:41.769Z,10.70
2022-11-15T12:32:37.183Z,7.57
2022-11-15T12:35:07.962Z,8.43
2022-11-15T12:37:42.898Z,9.80
2022-11-15T12:40:27.604Z,8.80
2022-11-15T12:43:46.320Z,9.90
2022-11-15T12:46:23.720Z,11.77
2022-11-15T12:48:57.188Z,8.67
2022-11-15T12:51:49.104Z,8.03
2022-11-15T12:54:26.233Z,7.33
2022-11-15T12:57:06.263Z,8.27
2022-11-15T12:59:52.836Z,7.40
2022-11-15T13:02:23.556Z,8.37
2022-11-15T13:04:52.258Z,7.00
2022-11-15T13:07:41.045Z,8.80
2022-11-15T13:10:14.711Z,9.30
2022-11-15T13:12:48.489Z,7.93
2022-11-15T13:15:16.822Z,9.13
2022-11-15T13:17:50.878Z,8.53
2022-11-15T13:20:19.198Z,10.30
2022-11-15T13:22:53.752Z,7.23
2022-11-15T13:25:43.089Z,11.63
2022-11-15T13:28:39.889Z,6.73
2022-11-15T13:31:29.687Z,7.57
2022-11-15T13:34:02.994Z,8.07
2022-11-15T13:36:39.650Z,7.40
2022-11-15T13:39:14.701Z,6.60
2022-11-15T13:41:52.795Z,6.80
2022-11-15T13:44:25.420Z,8.97
2022-11-15T13:47:15.592Z,8.03
2022-11-15T13:49:43.695Z,6.93
2022-11-15T13:52:16.271Z,9.73
2022-11-15T13:54:58.107Z,7.53
2022-11-15T13:57:28.244Z,7.23
2022-11-15T14:00:02.422Z,7.63
2022-11-15T14:02:36.981Z,8.63
2022-11-15T14:05:15.995Z,9.87
2022-11-15T14:07:56.623Z,12.67
2022-11-15T14:10:32.915Z,12.20
2022-11-15T14:13:00.934Z,12.83
2022-11-15T14:15:36.199Z,12.37
2022-11-15T14:18:04.597Z,10.37
2022-11-15T14:20:40.755Z,8.93
2022-11-15T14:23:28.215Z,10.60
2022-11-15T14:25:57.196Z,9.53
2022-11-15T14:28:24.884Z,10.63
2022-11-15T14:30:54.161Z,9.73
2022-11-15T14:33:31.871Z,8.53
2022-11-15T14:36:04.219Z,8.93
2022-11-15T14:38:32.303Z,8.80
2022-11-15T14:41:00.488Z,8.40
2022-11-15T14:43:28.326Z,9.50
2022-11-15T14:45:56.088Z,10.17
2022-11-15T14:48:24.220Z,9.40
2022-11-15T14:50:51.942Z,9.57
2022-11-15T14:53:20.041Z,9.60
2022-11-15T14:55:47.995Z,9.40
2022-11-15T14:58:15.784Z,10.00
2022-11-15T15:00:44.116Z,10.80
2022-11-15T15:03:12.020Z,10.80
2022-11-15T15:05:44.521Z,12.23
2022-11-15T15:08:12.808Z,11.80
2022-11-15T15:10:43.060Z,11.13
2022-11-15T15:13:22.177Z,10.33
2022-11-15T15:15:50.337Z,14.03
2022-11-15T15:18:18.503Z,12.47
2022-11-15T15:20:51.618Z,11.87
2022-11-15T15:23:22.531Z,10.73
2022-11-15T15:25:51.115Z,10.60
2022-11-15T15:28:18.933Z,10.27
2022-11-15T15:30:46.667Z,10.30
2022-11-15T15:33:14.441Z,10.27
2022-11-15T15:35:42.237Z,10.60
2022-11-15T15:38:17.540Z,10.27
2022-11-15T15:40:45.302Z,10.37
2022-11-15T15:43:13.166Z,10.57
2022-11-15T15:45:42.126Z,12.80
2022-11-15T15:48:14.606Z,13.50
2022-11-15T15:50:44.850Z,13.90
2022-11-15T15:53:12.742Z,13.17
2022-11-15T15:55:40.668Z,13.40
2022-11-15T15:58:10.173Z,13.60
2022-11-15T16:00:38.182Z,13.70
2022-11-15T16:03:05.930Z,13.20
2022-11-15T16:05:33.736Z,12.47
2022-11-15T16:08:01.610Z,15.50
2022-11-15T16:10:31.994Z,13.23
2022-11-15T16:13:00.029Z,13.40
2022-11-15T16:15:29.304Z,12.40
2022-11-15T16:18:00.863Z,11.60
2022-11-15T16:20:34.553Z,11.47
2022-11-15T16:23:08.746Z,8.83
2022-11-15T16:25:41.098Z,9.83
2022-11-15T16:28:33.000Z,9.43
2022-11-15T16:31:10.032Z,8.90
2022-11-15T16:33:38.625Z,7.30
2022-11-15T16:36:07.105Z,8.33
2022-11-15T16:38:35.252Z,7.43
2022-11-15T16:41:03.285Z,7.13
2022-11-15T16:43:31.127Z,8.37
2022-11-15T16:45:58.932Z,8.67
2022-11-15T16:48:28.798Z,9.97
2022-11-15T16:50:58.015Z,11.30
2022-11-15T16:53:26.617Z,11.23
2022-11-15T16:55:54.640Z,12.40
2022-11-15T16:58:22.460Z,14.27
2022-11-15T17:00:54.671Z,11.53
2022-11-15T17:03:25.783Z,14.77
2022-11-15T17:05:53.578Z,12.00
2022-11-15T17:08:22.976Z,14.77
2022-11-15T17:10:51.075Z,13.80
2022-11-15T17:13:19.003Z,14.13
2022-11-15T17:15:46.809Z,15.00
2022-11-15T17:18:16.537Z,14.67
2022-11-15T17:20:44.523Z,14.43
2022-11-15T17:23:15.512Z,13.20
2022-11-15T17:25:43.610Z,15.40
2022-11-15T17:28:11.581Z,19.60
2022-11-15T17:30:42.807Z,19.43
2022-11-15T17:33:10.606Z,18.47
2022-11-15T17:35:38.454Z,19.30
2022-11-15T17:38:06.412Z,21.77
2022-11-15T17:40:34.354Z,18.17
2022-11-15T17:43:02.294Z,15.53
2022-11-15T17:45:30.118Z,15.70
2022-11-15T17:47:58.150Z,14.40
2022-11-15T17:50:25.984Z,14.47
2022-11-15T17:52:53.833Z,14.23
2022-11-15T17:55:21.783Z,15.67
2022-11-15T17:57:49.625Z,13.13
2022-11-15T18:00:20.758Z,12.07
2022-11-15T18:02:48.541Z,14.33
2022-11-15T18:05:16.301Z,15.37
2022-11-15T18:07:44.105Z,20.73
2022-11-15T18:10:11.925Z,20.77
2022-11-15T18:12:39.681Z,19.33
2022-11-15T18:15:08.382Z,17.00
2022-11-15T18:17:36.340Z,19.73
2022-11-15T18:20:04.980Z,20.70
2022-11-15T18:22:33.028Z,28.10
2022-11-15T18:25:01.775Z,19.07
2022-11-15T18:27:29.615Z,17.70
2022-11-15T18:29:57.544Z,17.27
2022-11-15T18:32:32.574Z,18.23
2022-11-15T18:35:05.305Z,18.87
2022-11-15T18:37:33.774Z,15.93
2022-11-15T18:40:07.157Z,17.97
2022-11-15T18:42:35.438Z,16.03
2022-11-15T18:45:03.748Z,13.67
2022-11-15T18:47:32.860Z,12.37
2022-11-15T18:50:03.816Z,12.30
2022-11-15T18:52:32.025Z,12.63
2022-11-15T18:55:05.939Z,13.03
2022-11-15T18:57:36.900Z,13.57
2022-11-15T19:00:05.387Z,12.87
2022-11-15T19:02:36.080Z,12.10
2022-11-15T19:05:09.992Z,13.37
2022-11-15T19:07:43.813Z,12.57
2022-11-15T19:10:13.221Z,11.77
2022-11-15T19:12:46.824Z,12.43
2022-11-15T19:15:14.806Z,16.53
2022-11-15T19:17:42.875Z,14.27
2022-11-15T19:20:13.387Z,17.43
2022-11-15T19:22:41.380Z,12.97
2022-11-15T19:25:09.880Z,13.83
2022-11-15T19:27:43.446Z,13.30
2022-11-15T19:30:12.135Z,13.33
2022-11-15T19:32:40.021Z,12.77
2022-11-15T19:35:12.883Z,15.13
2022-11-15T19:37:45.444Z,11.90
2022-11-15T19:40:18.374Z,13.80
2022-11-15T19:42:46.137Z,16.23
2022-11-15T19:45:14.517Z,11.83
2022-11-15T19:47:45.219Z,13.77
2022-11-15T19:50:13.143Z,12.30
2022-11-15T19:52:45.810Z,12.37
2022-11-15T19:55:14.020Z,12.40
2022-11-15T19:57:42.121Z,9.33
2022-11-15T20:00:10.903Z,12.17
2022-11-15T20:02:41.125Z,11.37
2022-11-15T20:05:12.903Z,11.73
2022-11-15T20:07:43.441Z,11.97
2022-11-15T20:10:11.447Z,12.43
2022-11-15T20:12:40.151Z,14.00
2022-11-15T20:15:08.515Z,12.50
2022-11-15T20:17:36.497Z,12.80
2022-11-15T20:20:05.023Z,13.63
2022-11-15T20:22:32.864Z,10.23
2022-11-15T20:25:00.727Z,10.70
2022-11-15T20:27:28.514Z,12.33
2022-11-15T20:29:56.499Z,11.90
2022-11-15T20:32:29.057Z,12.57
2022-11-15T20:35:01.755Z,11.23
2022-11-15T20:37:34.418Z,14.03
2022-11-15T20:40:06.950Z,13.10
2022-11-15T20:42:35.014Z,11.33
2022-11-15T20:45:03.021Z,12.97
2022-11-15T20:47:34.206Z,15.87
2022-11-15T20:50:20.880Z,13.20
2022-11-15T20:52:52.437Z,14.47
2022-11-15T20:55:20.455Z,13.77
2022-11-15T20:57:53.403Z,14.57
2022-11-15T21:00:26.982Z,18.77
2022-11-15T21:02:59.619Z,14.40
2022-11-15T21:05:27.814Z,11.37
2022-11-15T21:08:01.348Z,12.53
2022-11-15T21:10:54.019Z,12.40
2022-11-15T21:13:22.054Z,11.20
2022-11-15T21:15:53.540Z,10.27
2022-11-15T21:18:21.624Z,12.20
2022-11-15T21:20:53.347Z,8.63
2022-11-15T21:23:25.858Z,8.53
2022-11-15T21:25:58.394Z,11.63
2022-11-15T21:28:26.596Z,8.97
2022-11-15T21:30:56.117Z,9.87
2022-11-15T21:33:25.229Z,9.97
2022-11-15T21:35:57.848Z,9.97
2022-11-15T21:38:26.150Z,12.83
2022-11-15T21:40:54.531Z,9.10
2022-11-15T21:43:27.058Z,9.40
2022-11-15T21:46:00.422Z,10.20
2022-11-15T21:48:33.630Z,10.53
2022-11-15T21:51:08.433Z,10.17
2022-11-15T21:53:42.054Z,11.57
2022-11-15T21:56:15.561Z,9.20
2022-11-15T21:58:43.751Z,9.27
2022-11-15T22:01:34.684Z,8.30
2022-11-15T22:04:02.804Z,8.37
2022-11-15T22:06:35.273Z,13.30
2022-11-15T22:09:03.900Z,8.93
2022-11-15T22:11:36.582Z,10.10
2022-11-15T22:14:09.341Z,10.03
2022-11-15T22:16:38.925Z,8.40
2022-11-15T22:19:11.926Z,9.90
2022-11-15T22:21:44.880Z,8.07
2022-11-15T22:24:12.955Z,10.97
2022-11-15T22:26:40.897Z,11.57
2022-11-15T22:29:09.160Z,8.67
2022-11-15T22:31:37.713Z,9.83
2022-11-15T22:34:11.155Z,9.23
2022-11-15T22:37:18.059Z,9.13
2022-11-15T22:39:39.567Z,9.67
2022-11-15T22:42:07.667Z,10.53
2022-11-15T22:44:46.362Z,11.37
2022-11-15T22:47:20.290Z,8.30
2022-11-15T22:49:48.525Z,9.53
2022-11-15T22:52:20.990Z,9.00
2022-11-15T22:54:53.802Z,8.10
2022-11-15T22:57:21.774Z,8.90
2022-11-15T23:00:03.561Z,11.87
2022-11-15T23:02:38.429Z,8.60
2022-11-15T23:05:10.991Z,9.87
2022-11-15T23:07:39.090Z,10.40
2022-11-15T23:10:30.832Z,9.43
2022-11-15T23:13:19.656Z,9.07
2022-11-15T23:16:10.146Z,10.23
2022-11-15T23:18:44.982Z,9.53
2022-11-15T23:21:17.421Z,8.23
2022-11-15T23:23:50.306Z,8.70
2022-11-15T23:26:23.836Z,8.47
2022-11-15T23:28:51.860Z,8.30
2022-11-15T23:32:04.464Z,8.50
2022-11-15T23:34:32.905Z,10.23
2022-11-15T23:37:06.319Z,10.83
2022-11-15T23:39:38.855Z,9.10
2022-11-15T23:42:09.364Z,8.40
2022-11-15T23:44:48.669Z,10.60
2022-11-15T23:47:22.825Z,9.43
2022-11-15T23:49:50.814Z,10.83
2022-11-15T23:52:18.984Z,11.17
2022-11-15T23:54:47.124Z,9.43
2022-11-15T23:57:15.013Z,8.10
2022-11-15T23:59:46.449Z,8.07
